createdAt,value
2016-03-19T07:59:18.904Z,16
2016-03-19T07:59:31.500Z,6
2016-03-19T07:59:43.375Z,6
2016-03-19T07:59:55.422Z,6
2016-03-19T08:00:07.657Z,6
2016-03-19T08:00:20.297Z,7
2016-03-19T08:00:33.221Z,6
2016-03-19T08:00:45.846Z,6
2016-03-19T08:00:57.612Z,6
2016-03-19T08:01:09.284Z,6
2016-03-19T08:01:21.315Z,6
2016-03-19T08:01:34.005Z,6
2016-03-19T08:01:46.037Z,6
2016-03-19T08:01:58.162Z,6
2016-03-19T08:02:09.880Z,6
2016-03-19T08:02:21.959Z,6
2016-03-19T08:02:33.618Z,6
2016-03-19T08:02:45.930Z,6
2016-03-19T08:02:57.837Z,6
2016-03-19T08:03:09.915Z,6
2016-03-19T08:03:22.055Z,6
2016-03-19T08:03:34.432Z,6
2016-03-19T08:03:45.964Z,6
2016-03-19T08:03:58.339Z,6
2016-03-19T08:04:10.182Z,6
2016-03-19T08:04:21.917Z,6
2016-03-19T08:04:34.218Z,6
2016-03-19T08:04:53.639Z,6
2016-03-19T08:05:08.358Z,6
2016-03-19T08:05:20.280Z,6
2016-03-19T08:05:33.001Z,6
2016-03-19T08:05:45.345Z,6
2016-03-19T08:05:57.313Z,6
2016-03-19T08:06:10.141Z,6
2016-03-19T08:06:22.251Z,6
2016-03-19T08:06:38.207Z,6
2016-03-19T08:06:51.316Z,6
2016-03-19T08:07:04.051Z,6
2016-03-19T08:07:17.113Z,6
2016-03-19T08:07:29.959Z,6
2016-03-19T08:07:42.006Z,6
2016-03-19T08:07:54.678Z,6
2016-03-19T08:08:06.475Z,6
2016-03-19T08:08:22.225Z,6
2016-03-19T08:08:34.134Z,6
2016-03-19T08:08:47.337Z,6
2016-03-19T08:08:59.165Z,6
2016-03-19T08:09:10.853Z,6
2016-03-19T08:09:23.071Z,6
2016-03-19T08:09:35.636Z,6
2016-03-19T08:09:47.573Z,6
2016-03-19T08:09:59.573Z,6
2016-03-19T08:10:11.964Z,6
2016-03-19T08:10:24.526Z,6
2016-03-19T08:10:36.936Z,6
2016-03-19T08:10:49.717Z,6
2016-03-19T08:11:02.029Z,6
2016-03-19T08:11:15.326Z,6
2016-03-19T08:11:27.361Z,6
2016-03-19T08:11:41.064Z,6
2016-03-19T08:11:53.829Z,6
2016-03-19T08:12:06.298Z,6
2016-03-19T08:12:18.657Z,6
2016-03-19T08:12:30.942Z,6
2016-03-19T08:12:45.989Z,6
2016-03-19T08:12:58.614Z,6
2016-03-19T08:13:10.973Z,6
2016-03-19T08:13:23.176Z,6
2016-03-19T08:13:35.335Z,6
2016-03-19T08:13:47.320Z,6
2016-03-19T08:13:59.257Z,6
2016-03-19T08:14:11.038Z,6
2016-03-19T08:14:23.054Z,6
2016-03-19T08:14:35.791Z,6
2016-03-19T08:14:47.557Z,6
2016-03-19T08:15:00.307Z,6
2016-03-19T08:15:12.635Z,6
2016-03-19T08:15:24.385Z,6
2016-03-19T08:15:36.168Z,6
2016-03-19T08:15:48.325Z,6
2016-03-19T08:16:00.809Z,6
2016-03-19T08:16:12.778Z,6
2016-03-19T08:16:24.559Z,6
2016-03-19T08:16:36.453Z,6
2016-03-19T08:16:48.187Z,6
2016-03-19T08:17:00.765Z,6
2016-03-19T08:17:13.625Z,6
2016-03-19T08:17:26.593Z,6
2016-03-19T08:17:42.830Z,6
2016-03-19T09:25:12.775Z,6
2016-03-19T09:25:25.400Z,6
2016-03-19T09:25:41.528Z,6
2016-03-19T09:25:55.060Z,6
2016-03-19T09:26:14.403Z,6
2016-03-19T09:26:26.372Z,6
2016-03-19T09:26:38.203Z,6
2016-03-19T09:26:49.719Z,6
2016-03-19T09:27:01.203Z,6
2016-03-19T09:27:12.656Z,6
2016-03-19T09:27:24.219Z,6
2016-03-19T09:27:36.205Z,6
2016-03-19T09:27:47.877Z,7
2016-03-19T09:27:59.455Z,6
2016-03-19T09:28:11.190Z,7
2016-03-19T09:28:23.377Z,7
2016-03-19T09:28:35.380Z,7
2016-03-19T09:28:46.927Z,7
2016-03-19T09:28:58.489Z,7
2016-03-19T09:29:10.036Z,7
2016-03-19T09:29:22.239Z,7
2016-03-19T09:29:38.055Z,7
2016-03-19T09:29:49.602Z,7
2016-03-19T09:30:01.133Z,7
2016-03-19T09:30:13.180Z,7
2016-03-19T09:30:26.289Z,7
2016-03-19T10:27:44.707Z,7
2016-03-19T10:27:56.645Z,7
2016-03-19T10:28:09.192Z,7
2016-03-19T10:28:20.801Z,7
2016-03-19T10:28:32.224Z,7
2016-03-19T10:28:43.849Z,7
2016-03-19T10:28:55.302Z,7
2016-03-19T10:29:13.099Z,7
2016-03-19T10:29:24.583Z,7
2016-03-19T10:29:36.647Z,7
2016-03-19T10:29:49.506Z,7
2016-03-19T10:30:01.272Z,7
2016-03-19T10:30:12.694Z,7
2016-03-19T10:30:24.147Z,7
2016-03-19T10:30:40.368Z,7
2016-03-19T10:30:52.211Z,7
2016-03-19T10:31:03.727Z,7
2016-03-19T12:10:52.039Z,7
2016-03-19T12:11:07.929Z,9
2016-03-19T12:11:19.351Z,9
2016-03-19T12:11:30.792Z,9
2016-03-19T12:11:43.276Z,9
2016-03-19T12:11:55.495Z,9
2016-03-19T12:12:07.714Z,9
2016-03-19T12:12:19.120Z,9
2016-03-19T12:12:30.967Z,9
2016-03-19T12:12:42.889Z,9
2016-03-19T12:12:55.435Z,9
2016-03-19T12:13:11.185Z,9
2016-03-19T12:13:28.014Z,9
2016-03-19T12:13:39.594Z,9
2016-03-19T12:13:51.969Z,9
2016-03-19T12:14:04.125Z,9
2016-03-19T12:14:15.656Z,9
2016-03-19T12:14:27.250Z,9
2016-03-19T12:14:39.175Z,9
2016-03-19T12:14:51.003Z,9
2016-03-19T12:15:02.847Z,9
2016-03-19T12:15:17.847Z,9
2016-03-19T12:15:29.440Z,9
2016-03-19T12:15:41.146Z,9
2016-03-19T12:15:52.661Z,9
2016-03-19T12:16:04.427Z,9
2016-03-19T12:16:16.536Z,9
2016-03-19T12:16:28.052Z,9
2016-03-19T12:16:39.617Z,9
2016-03-19T12:16:51.664Z,9
2016-03-19T12:17:03.227Z,9
2016-03-19T12:17:14.774Z,9
2016-03-19T12:17:26.305Z,9
2016-03-19T12:17:37.885Z,9
2016-03-19T12:17:49.854Z,10
2016-03-19T12:18:01.432Z,9
2016-03-19T12:18:12.947Z,9
2016-03-19T12:18:24.526Z,10
2016-03-19T12:18:36.889Z,10
2016-03-19T12:18:48.483Z,10
2016-03-19T12:19:01.092Z,10
2016-03-19T12:19:13.076Z,10
2016-03-19T12:19:24.701Z,10
2016-03-19T12:19:36.938Z,10
2016-03-19T12:19:48.985Z,10
2016-03-19T12:20:00.657Z,10
2016-03-19T12:20:17.328Z,10
2016-03-19T12:20:30.047Z,10
2016-03-19T12:20:41.675Z,10
2016-03-19T12:20:53.285Z,10
2016-03-19T12:21:05.050Z,10
2016-03-19T12:21:16.550Z,10
2016-03-19T12:21:28.785Z,10
2016-03-19T12:21:40.458Z,10
2016-03-19T12:21:52.037Z,9
2016-03-19T12:22:03.599Z,9
2016-03-19T12:22:16.162Z,9
2016-03-19T12:22:27.693Z,9
2016-03-19T12:22:39.149Z,9
2016-03-19T12:22:50.790Z,9
2016-03-19T12:23:02.321Z,9
2016-03-19T12:23:14.399Z,9
2016-03-19T12:23:25.930Z,9
2016-03-19T12:23:37.418Z,9
2016-03-19T12:23:49.308Z,9
2016-03-19T12:24:01.261Z,9
2016-03-19T12:24:12.808Z,9
2016-03-19T12:24:24.339Z,9
2016-03-19T12:24:35.858Z,9
2016-03-19T12:24:47.389Z,9
2016-03-19T12:24:58.874Z,9
2016-03-19T12:25:10.327Z,9
2016-03-19T12:25:22.796Z,9
2016-03-19T12:25:34.344Z,9
2016-03-19T12:25:45.860Z,9
2016-03-19T12:25:57.251Z,9
2016-03-19T12:26:09.391Z,9
2016-03-19T12:26:20.844Z,9
2016-03-19T12:26:32.581Z,9
2016-03-19T12:26:43.940Z,9
2016-03-19T12:26:55.518Z,9
2016-03-19T13:32:01.397Z,9
2016-03-19T13:32:14.929Z,10
2016-03-19T13:32:30.444Z,10
2016-03-19T13:32:42.399Z,10
2016-03-19T13:32:56.853Z,10
2016-03-19T13:33:08.149Z,10
2016-03-19T13:33:19.540Z,10
2016-03-19T13:33:30.884Z,10
2016-03-19T13:33:42.262Z,10
2016-03-19T13:33:54.809Z,10
2016-03-19T13:34:06.199Z,10
2016-03-19T13:34:17.559Z,10
2016-03-19T13:34:29.277Z,10
2016-03-19T13:34:40.592Z,10
2016-03-19T13:34:51.936Z,10
2016-03-19T13:35:03.248Z,10
2016-03-19T13:35:15.592Z,10
2016-03-19T13:35:29.420Z,10
2016-03-19T13:35:41.737Z,11
2016-03-19T13:35:53.408Z,11
2016-03-19T13:36:05.033Z,11
2016-03-19T13:36:18.018Z,11
2016-03-19T13:36:29.315Z,11
2016-03-19T13:36:41.067Z,11
2016-03-19T13:36:54.035Z,11
2016-03-19T13:37:05.395Z,11
2016-03-19T13:37:16.739Z,11
2016-03-19T13:37:29.848Z,11
2016-03-19T13:37:57.163Z,11
2016-03-19T13:38:09.007Z,11
2016-03-19T13:38:20.476Z,11
2016-03-19T13:38:31.947Z,11
2016-03-19T13:38:43.369Z,11
2016-03-19T13:38:55.259Z,11
2016-03-19T13:39:06.759Z,11
2016-03-19T13:39:18.915Z,11
2016-03-19T13:39:30.478Z,11
2016-03-19T13:39:42.918Z,11
2016-03-19T13:39:54.403Z,11
2016-03-19T13:40:06.731Z,11
2016-03-19T13:40:18.778Z,11
2016-03-19T13:40:30.387Z,11
2016-03-19T13:40:42.640Z,11
2016-03-19T13:40:54.375Z,11
2016-03-19T13:41:06.781Z,11
2016-03-19T13:41:18.265Z,11
2016-03-19T13:41:31.640Z,11
2016-03-19T13:41:44.315Z,11
2016-03-19T13:41:56.737Z,10
2016-03-19T13:42:09.174Z,10
2016-03-19T13:42:21.018Z,10
2016-03-19T13:42:32.427Z,10
2016-03-19T13:42:43.959Z,11
2016-03-19T13:42:55.865Z,11
2016-03-19T13:43:07.271Z,11
2016-03-19T13:43:18.709Z,11
2016-03-19T13:43:30.115Z,11
2016-03-19T13:43:42.992Z,11
2016-03-19T13:43:54.445Z,10
2016-03-19T13:44:05.883Z,10
2016-03-19T13:44:17.976Z,10
2016-03-19T13:44:29.414Z,10
2016-03-19T13:44:40.745Z,10
2016-03-19T13:44:52.089Z,10
2016-03-19T13:45:03.495Z,10
2016-03-19T13:45:14.854Z,10
2016-03-19T13:45:26.167Z,10
2016-03-19T13:45:38.154Z,10
2016-03-19T13:45:49.514Z,10
2016-03-19T13:46:01.857Z,10
2016-03-19T13:46:13.592Z,10
2016-03-19T13:46:26.623Z,10
2016-03-19T13:46:39.391Z,10
2016-03-19T13:46:51.406Z,10
2016-03-19T13:47:03.219Z,10
2016-03-19T13:47:15.187Z,10
2016-03-19T13:47:26.937Z,10
2016-03-19T13:47:42.611Z,10
2016-03-19T13:47:54.080Z,10
2016-03-19T13:48:06.174Z,10
2016-03-19T13:48:18.627Z,10
2016-03-19T13:48:30.002Z,10
2016-03-19T13:48:47.599Z,10
2016-03-19T14:19:45.948Z,10
2016-03-19T14:19:57.339Z,12
2016-03-19T14:20:11.745Z,12
2016-03-19T14:20:23.526Z,12
2016-03-19T14:20:35.389Z,12
2016-03-19T14:20:49.795Z,12
2016-03-19T14:21:01.108Z,12
2016-03-19T14:21:15.545Z,12
2016-03-19T14:21:27.311Z,12
2016-03-19T14:21:38.719Z,12
2016-03-19T14:21:50.172Z,12
2016-03-19T14:22:01.625Z,12
2016-03-19T14:22:13.922Z,12
2016-03-19T14:22:25.969Z,12
2016-03-19T14:22:37.738Z,12
2016-03-19T14:22:51.284Z,12
2016-03-19T14:23:03.097Z,12
2016-03-19T14:23:15.753Z,12
2016-03-19T14:23:28.269Z,12
2016-03-19T14:23:39.772Z,12
2016-03-19T14:23:51.241Z,12
2016-03-19T14:24:03.209Z,12
2016-03-19T14:24:14.741Z,12
2016-03-19T14:24:26.225Z,12
2016-03-19T14:24:37.789Z,12
2016-03-19T14:24:49.305Z,12
2016-03-19T14:25:00.789Z,12
2016-03-19T14:25:12.258Z,12
2016-03-19T14:25:24.852Z,12
2016-03-19T14:25:36.291Z,12
2016-03-19T14:25:48.338Z,12
2016-03-19T14:25:59.791Z,12
2016-03-19T14:26:11.213Z,12
2016-03-19T14:26:24.682Z,12
2016-03-19T14:26:37.124Z,12
2016-03-19T14:26:48.639Z,12
2016-03-19T14:27:00.092Z,12
2016-03-19T14:27:11.545Z,12
2016-03-19T14:27:23.108Z,12
2016-03-19T14:27:34.579Z,12
2016-03-19T14:27:46.922Z,12
2016-03-19T14:27:58.391Z,12
2016-03-19T14:28:10.422Z,12
2016-03-19T14:28:21.891Z,12
2016-03-19T14:28:34.894Z,12
2016-03-19T14:28:46.410Z,12
2016-03-19T14:28:58.347Z,12
2016-03-19T14:29:10.410Z,12
2016-03-19T14:29:26.550Z,12
2016-03-19T14:29:38.990Z,12
2016-03-19T14:29:51.724Z,12
2016-03-19T14:30:03.115Z,12
2016-03-19T14:30:15.740Z,12
2016-03-19T14:30:27.131Z,12
2016-03-19T14:30:39.493Z,12
2016-03-19T14:30:50.993Z,12
2016-03-19T14:31:03.634Z,12
2016-03-19T14:31:15.649Z,12
2016-03-19T14:31:27.055Z,12
2016-03-19T14:31:38.512Z,12
2016-03-19T14:31:50.402Z,12
2016-03-19T14:32:01.855Z,12
2016-03-19T14:32:13.324Z,12
2016-03-19T14:32:24.730Z,12
2016-03-19T14:32:36.170Z,12
2016-03-19T14:32:47.592Z,12
2016-03-19T14:32:59.029Z,12
2016-03-19T14:33:10.467Z,12
2016-03-19T14:33:22.482Z,12
2016-03-19T14:33:33.986Z,12
2016-03-19T14:33:45.455Z,12
2016-03-19T14:33:56.908Z,12
2016-03-19T14:34:08.377Z,12
2016-03-19T14:34:19.861Z,12
2016-03-19T14:34:31.299Z,12
2016-03-19T14:34:42.754Z,12
2016-03-19T14:34:54.145Z,12
2016-03-19T14:35:05.957Z,12
2016-03-19T14:35:17.785Z,12
2016-03-19T14:35:29.770Z,12
2016-03-19T14:35:41.226Z,12
2016-03-19T16:14:34.004Z,12
2016-03-19T16:14:46.914Z,16
2016-03-19T16:14:59.023Z,16
2016-03-19T16:15:10.554Z,16
2016-03-19T16:15:22.054Z,16
2016-03-19T16:15:33.601Z,16
2016-03-19T16:15:45.150Z,16
2016-03-19T16:15:57.056Z,16
2016-03-19T16:16:08.541Z,16
2016-03-19T16:16:20.541Z,16
2016-03-19T16:16:32.447Z,16
2016-03-19T16:16:44.216Z,16
2016-03-19T16:16:55.810Z,16
2016-03-19T16:17:08.498Z,16
2016-03-19T16:17:20.935Z,16
2016-03-19T16:17:32.482Z,16
2016-03-19T16:17:44.234Z,16
2016-03-19T16:17:56.515Z,16
2016-03-19T16:18:09.234Z,16
2016-03-19T16:18:21.547Z,17
2016-03-19T16:18:33.437Z,17
2016-03-19T16:18:46.003Z,17
2016-03-19T16:18:58.471Z,17
2016-03-19T16:19:11.831Z,17
2016-03-19T16:19:30.675Z,17
2016-03-19T16:19:43.880Z,17
2016-03-19T16:19:55.505Z,17
2016-03-19T16:20:07.145Z,17
2016-03-19T16:20:20.067Z,17
2016-03-19T16:20:34.383Z,17
2016-03-19T16:20:46.070Z,17
2016-03-19T16:20:59.148Z,17
2016-03-19T16:21:12.133Z,17
2016-03-19T16:21:24.164Z,17
2016-03-19T16:21:35.901Z,16
2016-03-19T16:21:47.511Z,17
2016-03-19T16:22:00.323Z,16
2016-03-19T16:22:13.151Z,16
2016-03-19T16:22:24.698Z,16
2016-03-19T16:22:36.264Z,16
2016-03-19T16:22:48.279Z,16
2016-03-19T16:23:00.186Z,16
2016-03-19T16:23:12.795Z,16
2016-03-19T16:23:24.576Z,16
2016-03-19T16:23:36.203Z,16
2016-03-19T16:23:48.094Z,16
2016-03-19T16:23:59.953Z,16
2016-03-19T16:24:12.391Z,16
2016-03-19T16:24:24.000Z,16
2016-03-19T16:24:36.128Z,16
2016-03-19T16:24:47.628Z,16
2016-03-19T16:24:59.097Z,16
2016-03-19T16:25:10.769Z,16
2016-03-19T16:25:22.487Z,16
2016-03-19T16:25:34.050Z,16
2016-03-19T16:25:45.569Z,16
2016-03-19T16:25:57.225Z,16
2016-03-19T16:26:09.131Z,16
2016-03-19T16:26:21.975Z,16
2016-03-19T16:26:33.678Z,16
2016-03-19T16:26:45.586Z,16
2016-03-19T16:26:58.133Z,16
2016-03-19T16:27:09.617Z,16
2016-03-19T16:27:22.180Z,16
2016-03-19T16:27:34.055Z,16
2016-03-19T16:27:45.980Z,16
2016-03-19T16:27:57.574Z,16
2016-03-19T16:28:09.042Z,16
2016-03-19T16:28:20.589Z,16
2016-03-19T16:28:32.183Z,16
2016-03-19T16:28:44.264Z,16
2016-03-19T16:28:56.217Z,16
2016-03-19T16:29:08.108Z,16
2016-03-19T16:29:23.045Z,16
2016-03-19T16:29:34.922Z,16
2016-03-19T16:29:46.547Z,16
2016-03-19T16:29:58.188Z,16
2016-03-19T16:30:10.485Z,16
2016-03-19T16:30:22.704Z,16
2016-03-19T16:30:39.050Z,16
2016-03-19T16:30:51.753Z,16
2016-03-19T17:03:19.933Z,16
2016-03-19T17:03:32.074Z,12
2016-03-19T17:03:44.249Z,12
2016-03-19T17:03:56.296Z,12
2016-03-19T17:04:07.796Z,12
2016-03-19T17:04:20.921Z,12
2016-03-19T17:04:32.374Z,12
2016-03-19T17:04:44.424Z,12
2016-03-19T17:04:56.783Z,12
2016-03-19T17:05:08.299Z,12
2016-03-19T17:05:20.314Z,12
2016-03-19T17:05:32.392Z,12
2016-03-19T17:05:43.972Z,12
2016-03-19T17:05:56.816Z,12
2016-03-19T17:06:08.676Z,12
2016-03-19T17:06:20.660Z,12
2016-03-19T17:06:33.179Z,12
2016-03-19T17:06:45.697Z,12
2016-03-19T17:06:59.181Z,12
2016-03-19T17:07:18.963Z,12
2016-03-19T17:07:30.494Z,12
2016-03-19T17:07:42.075Z,12
2016-03-19T17:07:53.622Z,12
2016-03-19T17:08:05.169Z,12
2016-03-19T17:08:17.169Z,12
2016-03-19T17:08:29.013Z,12
2016-03-19T17:08:41.172Z,12
2016-03-19T17:08:53.469Z,12
2016-03-19T17:09:05.000Z,12
2016-03-19T17:09:16.562Z,12
2016-03-19T17:09:28.094Z,12
2016-03-19T17:09:40.455Z,12
2016-03-19T17:09:51.939Z,12
2016-03-19T17:10:03.439Z,12
2016-03-19T17:10:14.893Z,12
2016-03-19T17:10:26.377Z,12
2016-03-19T17:10:38.693Z,12
2016-03-19T17:10:50.881Z,12
2016-03-19T17:11:02.459Z,12
2016-03-19T17:11:17.506Z,12
2016-03-19T17:11:29.459Z,12
2016-03-19T17:11:41.070Z,12
2016-03-19T17:11:53.258Z,12
2016-03-19T17:12:04.867Z,12
2016-03-19T17:12:16.477Z,12
2016-03-19T17:12:28.383Z,12
2016-03-19T17:12:40.308Z,11
2016-03-19T17:12:51.948Z,11
2016-03-19T17:13:03.730Z,11
2016-03-19T17:13:15.323Z,11
2016-03-19T17:13:27.777Z,11
2016-03-19T17:13:39.935Z,11
2016-03-19T17:13:51.669Z,11
2016-03-19T17:14:03.200Z,11
2016-03-19T17:14:14.716Z,11
2016-03-19T17:14:26.544Z,11
2016-03-19T17:14:38.125Z,11
2016-03-19T17:14:49.688Z,11
2016-03-19T17:15:01.297Z,11
2016-03-19T17:15:12.860Z,11
2016-03-19T17:15:24.453Z,11
2016-03-19T17:15:36.003Z,11
2016-03-19T17:15:47.660Z,11
2016-03-19T17:15:59.253Z,11
2016-03-19T17:16:10.863Z,11
2016-03-19T17:16:22.566Z,11
2016-03-19T17:16:35.568Z,11
2016-03-19T17:16:47.208Z,11
2016-03-19T17:16:58.802Z,11
2016-03-19T17:17:10.287Z,11
2016-03-19T17:17:22.662Z,11
2016-03-19T17:17:34.662Z,11
2016-03-19T17:17:46.509Z,11
2016-03-19T17:17:58.556Z,11
2016-03-19T17:18:10.197Z,11
2016-03-19T17:18:21.806Z,11
2016-03-19T17:18:33.384Z,11
2016-03-19T17:18:45.433Z,11
2016-03-19T17:18:56.949Z,11
2016-03-19T17:19:08.933Z,11
2016-03-19T17:19:21.277Z,11
2016-03-19T18:45:38.136Z,11
2016-03-19T18:45:51.136Z,9
2016-03-19T18:46:02.933Z,9
2016-03-19T18:46:15.964Z,9
2016-03-19T18:46:28.011Z,9
2016-03-19T18:46:39.655Z,9
2016-03-19T18:46:52.451Z,9
2016-03-19T18:47:03.936Z,9
2016-03-19T18:47:15.717Z,9
2016-03-19T18:47:27.608Z,9
2016-03-19T18:47:42.064Z,9
2016-03-19T18:47:53.454Z,9
2016-03-19T18:48:05.704Z,9
2016-03-19T18:48:17.173Z,9
2016-03-19T18:48:29.220Z,9
2016-03-19T18:48:41.316Z,9
2016-03-19T18:48:52.847Z,9
2016-03-19T18:49:04.378Z,9
2016-03-19T18:49:17.003Z,9
2016-03-19T18:49:30.128Z,9
2016-03-19T18:49:42.052Z,9
2016-03-19T18:49:53.880Z,9
2016-03-19T18:50:05.380Z,9
2016-03-19T18:50:17.287Z,9
2016-03-19T18:50:28.771Z,9
2016-03-19T18:50:40.774Z,9
2016-03-19T18:50:52.243Z,9
2016-03-19T18:51:04.430Z,9
2016-03-19T18:51:16.274Z,9
2016-03-19T18:51:28.102Z,9
2016-03-19T18:51:39.511Z,9
2016-03-19T18:51:51.871Z,9
2016-03-19T18:52:09.214Z,9
2016-03-19T18:52:22.058Z,9
2016-03-19T18:52:34.230Z,9
2016-03-19T18:52:46.530Z,9
2016-03-19T18:52:57.905Z,9
2016-03-19T18:53:10.280Z,9
2016-03-19T18:53:22.358Z,9
2016-03-19T18:53:33.764Z,9
2016-03-19T18:53:45.985Z,9
2016-03-19T18:54:04.548Z,9
2016-03-19T18:54:16.751Z,9
2016-03-19T18:54:28.235Z,9
2016-03-19T18:54:39.707Z,9
2016-03-19T18:54:51.222Z,9
2016-03-19T18:55:02.691Z,9
2016-03-19T18:55:14.660Z,9
2016-03-19T18:55:26.129Z,9
2016-03-19T18:55:37.866Z,9
2016-03-19T18:55:49.350Z,9
2016-03-19T18:56:01.741Z,9
2016-03-19T18:56:13.210Z,9
2016-03-19T18:56:24.679Z,9
2016-03-19T18:56:36.179Z,9
2016-03-19T18:56:47.681Z,9
2016-03-19T18:56:59.181Z,9
2016-03-19T18:57:10.727Z,9
2016-03-19T18:57:22.196Z,9
2016-03-19T18:57:34.181Z,9
2016-03-19T18:57:50.355Z,9
2016-03-19T18:58:02.418Z,9
2016-03-19T18:58:14.590Z,9
2016-03-19T18:58:26.262Z,9
2016-03-19T18:58:38.171Z,9
2016-03-19T18:58:50.171Z,9
2016-03-19T18:59:02.093Z,9
2016-03-19T18:59:13.577Z,9
2016-03-19T18:59:25.202Z,9
2016-03-19T18:59:37.158Z,9
2016-03-19T18:59:48.768Z,9
2016-03-19T19:00:01.346Z,9
2016-03-19T19:00:14.377Z,9
2016-03-19T19:00:26.252Z,9
2016-03-19T19:00:38.567Z,9
2016-03-19T19:00:52.020Z,9
2016-03-19T19:01:08.676Z,9
2016-03-19T19:01:21.176Z,9
2016-03-19T19:01:33.301Z,9
2016-03-19T19:01:45.773Z,9
2016-03-19T19:01:58.710Z,9
2016-03-19T19:02:11.210Z,9
2016-03-19T19:36:44.436Z,9
2016-03-19T19:36:59.796Z,8
2016-03-19T19:37:17.968Z,8
2016-03-19T19:37:36.264Z,8
2016-03-19T19:37:53.703Z,8
2016-03-19T19:38:09.844Z,8
2016-03-19T19:38:24.578Z,8
2016-03-19T19:38:41.689Z,8
2016-03-19T19:38:59.814Z,8
2016-03-19T19:39:16.892Z,8
2016-03-19T19:39:31.377Z,8
2016-03-19T19:39:47.379Z,8
2016-03-19T19:40:05.332Z,8
2016-03-19T19:40:24.082Z,8
2016-03-19T19:40:43.491Z,8
2016-03-19T19:40:59.038Z,8
2016-03-19T19:41:16.069Z,8
2016-03-19T19:41:37.509Z,8
2016-03-19T19:42:08.540Z,8
2016-03-19T19:42:31.431Z,8
2016-03-19T19:42:56.043Z,8
2016-03-19T19:43:17.777Z,8
2016-03-19T19:43:50.390Z,8
2016-03-19T19:44:17.187Z,8
2016-03-19T19:44:36.296Z,8
2016-03-19T19:44:56.283Z,8
2016-03-19T19:45:13.330Z,8
2016-03-19T19:45:33.846Z,8
2016-03-19T19:45:51.567Z,8
2016-03-19T19:46:15.192Z,8
2016-03-19T19:46:40.194Z,8
2016-03-19T19:47:07.037Z,8
2016-03-19T19:47:27.991Z,8
2016-03-19T19:47:53.431Z,8
2016-03-19T19:48:20.040Z,8
2016-03-19T19:48:52.497Z,8
2016-03-19T19:49:17.403Z,8
2016-03-19T19:49:59.061Z,8
2016-03-19T19:50:41.229Z,8
2016-03-19T19:51:19.073Z,8
2016-03-19T19:51:43.044Z,8
2016-03-19T19:52:06.231Z,8
2016-03-19T19:52:25.778Z,8
2016-03-19T19:52:47.125Z,8
2016-03-19T19:53:03.937Z,8
2016-03-19T19:53:21.922Z,8
2016-03-19T19:53:41.846Z,8
2016-03-19T19:53:57.205Z,8
2016-03-19T19:54:14.377Z,8
2016-03-19T19:54:32.549Z,8
2016-03-19T19:54:48.192Z,8
2016-03-19T19:55:12.411Z,8
2016-03-19T19:55:35.911Z,8
2016-03-19T19:55:55.336Z,8
2016-03-19T19:56:21.539Z,8
2016-03-19T19:56:38.494Z,8
2016-03-19T19:56:59.525Z,8
2016-03-19T19:57:19.619Z,8
2016-03-19T19:57:39.154Z,8
2016-03-19T19:57:55.998Z,8
2016-03-19T19:58:14.904Z,8
2016-03-19T19:58:34.779Z,8
2016-03-19T19:58:53.375Z,8
2016-03-19T19:59:09.063Z,8
2016-03-19T19:59:28.110Z,8
2016-03-19T19:59:46.597Z,8
2016-03-19T20:00:01.988Z,8
2016-03-19T20:00:19.159Z,8
2016-03-19T20:00:37.286Z,8
2016-03-19T20:00:55.021Z,8
2016-03-19T20:01:10.708Z,8
2016-03-19T20:01:28.818Z,8
2016-03-19T20:01:55.586Z,8
2016-03-19T20:02:19.352Z,8
2016-03-19T20:02:42.792Z,8
2016-03-19T20:03:03.652Z,8
2016-03-19T20:03:21.761Z,8
2016-03-19T20:03:40.858Z,8
2016-03-19T20:04:05.655Z,8
2016-03-19T20:04:28.452Z,8
2016-03-19T20:04:52.329Z,8
2016-03-19T20:05:23.844Z,8
2016-03-19T20:05:54.753Z,8
2016-03-19T20:06:20.878Z,8
2016-03-19T20:06:41.296Z,8
2016-03-19T20:07:06.249Z,8
2016-03-19T20:07:27.234Z,8
2016-03-19T20:07:48.845Z,8
2016-03-19T20:08:06.408Z,8
2016-03-19T20:08:26.892Z,8
2016-03-19T20:08:47.802Z,8
2016-03-19T20:09:06.927Z,8
2016-03-19T20:09:26.442Z,8
2016-03-19T20:09:46.772Z,8
2016-03-19T20:10:06.397Z,8
2016-03-19T20:10:32.569Z,8
2016-03-19T20:10:47.697Z,8
2016-03-19T20:11:18.228Z,8
2016-03-19T20:11:58.106Z,8
2016-03-19T20:12:28.950Z,8
2016-03-19T20:12:54.530Z,8
2016-03-19T20:13:31.202Z,8
2016-03-19T20:14:07.362Z,8
2016-03-19T20:14:45.411Z,8
2016-03-19T20:15:30.911Z,8
2016-03-19T20:16:08.414Z,8
2016-03-19T20:16:42.026Z,8
2016-03-19T20:17:16.885Z,8
2016-03-19T20:17:51.544Z,8
2016-03-19T20:18:34.201Z,8
2016-03-19T20:19:17.688Z,8
2016-03-19T20:19:53.346Z,8
2016-03-19T20:20:25.846Z,8
2016-03-19T20:21:09.693Z,8
2016-03-19T20:21:42.571Z,8
2016-03-19T20:22:30.915Z,8
2016-03-19T20:23:13.715Z,8
2016-03-19T20:23:48.342Z,8
2016-03-19T20:24:30.685Z,8
2016-03-19T20:25:07.532Z,8
2016-03-19T20:25:53.051Z,8
2016-03-19T20:26:33.988Z,8
2016-03-19T20:27:20.131Z,8
2016-03-19T20:27:55.321Z,8
2016-03-19T20:28:39.933Z,8
2016-03-19T20:29:25.136Z,8
2016-03-19T20:30:04.999Z,8
2016-03-19T20:30:44.798Z,8
2016-03-19T20:31:21.689Z,7
2016-03-19T20:31:51.676Z,8
2016-03-19T20:32:24.317Z,7
2016-03-19T20:33:02.787Z,8
2016-03-19T20:33:41.978Z,7
